Terminal Aerodrome Forecast
Issued by NWS

Home | Current Version | Previous Version | Text Only | Print | Product List | Glossary On
Versions: 1 2 3 4 5 6 7 8 9 10 11 12 13 14 15 16 17
000
FTUS43 KPAH 211720
TAFOWB
TAF
KOWB 211720Z 2118/2218 16007KT P6SM SCT035
      TEMPO 2118/2121 BKN035
     FM220100 15004KT P6SM SKC
      TEMPO 2211/2214 3SM BR
     FM221400 12005KT P6SM FEW035=

USA.gov is the U.S. government's official web portal to all federal, state and local government web resources and services.